ENT1375 EPKT-LEPA
Flight info
| Callsign | ENT1375 |
|---|---|
| Flight time | 2h 37m |
| Altitude | 36000 |
| Route | TUSIN DCT UPLAV DCT MIKOV DCT DETSA/N0454F370 DCT BAKOR DCT GEKBA/N0431F290 DCT VAMTU DCT KOLON DCT GANGU DCT PADKO DCT VATIR N852 VERSO L129 LUNIK |
| Aircraft | B738/M-VOLDFGIRWYHJ1X/EB1 |
Departure
| Time | 2026-05-05 20:28 |
|---|---|
| Airport | Katowice Wojciech Korfanty International Airport (EPKT) |
Arrival
| Time | 2026-05-05 23:05 |
|---|---|
| Airport | Palma de Mallorca Airport (LEPA) |
| Time | Latitude | Longitude | Altitude | Speed | Heading |
|---|---|---|---|---|---|
| 2026-05-05 19:58 | 50.47143 | 19.07965 | 1027 ft | 0 kts | 180° |
| 2026-05-05 20:15 | 50.47145 | 19.07965 | 1024 ft | 2 kts | 180° |
| 2026-05-05 20:15 | 50.47163 | 19.07966 | 1025 ft | 3 kts | 182° |
| 2026-05-05 20:16 | 50.47184 | 19.07967 | 1026 ft | 3 kts | 182° |
| 2026-05-05 20:16 | 50.47204 | 19.07968 | 1023 ft | 3 kts | 178° |
| 2026-05-05 20:16 | 50.47223 | 19.07964 | 1025 ft | 3 kts | 155° |
| 2026-05-05 20:16 | 50.47234 | 19.07953 | 1023 ft | 2 kts | 98° |
| 2026-05-05 20:17 | 50.47234 | 19.07948 | 1022 ft | 0 kts | 90° |
| 2026-05-05 20:20 | 50.47234 | 19.07958 | 1024 ft | 4 kts | 91° |
| 2026-05-05 20:20 | 50.47233 | 19.08047 | 1025 ft | 13 kts | 90° |
| 2026-05-05 20:20 | 50.47234 | 19.08199 | 1025 ft | 14 kts | 90° |
| 2026-05-05 20:21 | 50.47233 | 19.08346 | 1029 ft | 13 kts | 90° |
| 2026-05-05 20:21 | 50.47233 | 19.08489 | 1029 ft | 13 kts | 90° |
| 2026-05-05 20:21 | 50.47232 | 19.08634 | 1026 ft | 14 kts | 90° |
| 2026-05-05 20:21 | 50.47231 | 19.08795 | 1028 ft | 15 kts | 90° |
| 2026-05-05 20:22 | 50.47230 | 19.08957 | 1029 ft | 14 kts | 90° |
| 2026-05-05 20:22 | 50.47231 | 19.09110 | 1027 ft | 14 kts | 90° |
| 2026-05-05 20:22 | 50.47231 | 19.09280 | 1029 ft | 18 kts | 90° |
| 2026-05-05 20:22 | 50.47231 | 19.09485 | 1030 ft | 19 kts | 90° |
| 2026-05-05 20:23 | 50.47230 | 19.09686 | 1032 ft | 18 kts | 90° |
| 2026-05-05 20:23 | 50.47230 | 19.09880 | 1033 ft | 17 kts | 90° |
| 2026-05-05 20:23 | 50.47254 | 19.10058 | 1035 ft | 17 kts | 54° |
| 2026-05-05 20:23 | 50.47325 | 19.10199 | 1036 ft | 16 kts | 51° |
| 2026-05-05 20:24 | 50.47392 | 19.10334 | 1037 ft | 13 kts | 52° |
| 2026-05-05 20:24 | 50.47403 | 19.10356 | 1037 ft | 0 kts | 51° |
| 2026-05-05 20:26 | 50.47411 | 19.10370 | 1037 ft | 5 kts | 51° |
| 2026-05-05 20:26 | 50.47454 | 19.10435 | 1037 ft | 12 kts | 26° |
| 2026-05-05 20:27 | 50.47556 | 19.10446 | 1038 ft | 18 kts | 359° |
| 2026-05-05 20:27 | 50.47597 | 19.10347 | 1037 ft | 12 kts | 270° |
| 2026-05-05 20:27 | 50.47597 | 19.10086 | 1035 ft | 53 kts | 270° |
| 2026-05-05 20:27 | 50.47598 | 19.09134 | 1028 ft | 119 kts | 270° |
| 2026-05-05 20:28 | 50.47598 | 19.07541 | 1039 ft | 171 kts | 269° |
| 2026-05-05 20:28 | 50.47616 | 19.05638 | 1611 ft | 178 kts | 267° |
| 2026-05-05 20:28 | 50.47646 | 19.03776 | 2593 ft | 163 kts | 264° |
| 2026-05-05 20:28 | 50.47663 | 19.01963 | 3191 ft | 177 kts | 262° |
| 2026-05-05 20:29 | 50.47640 | 18.99877 | 3443 ft | 203 kts | 262° |
| 2026-05-05 20:29 | 50.47626 | 18.97536 | 3721 ft | 222 kts | 263° |
| 2026-05-05 20:29 | 50.47623 | 18.95058 | 4193 ft | 231 kts | 264° |
| 2026-05-05 20:29 | 50.47614 | 18.92506 | 4809 ft | 234 kts | 263° |
| 2026-05-05 20:30 | 50.47549 | 18.89870 | 5165 ft | 249 kts | 255° |
| 2026-05-05 20:30 | 50.46787 | 18.87512 | 5774 ft | 249 kts | 223° |
| 2026-05-05 20:30 | 50.45349 | 18.86005 | 6511 ft | 252 kts | 203° |
| 2026-05-05 20:30 | 50.43677 | 18.85090 | 7234 ft | 257 kts | 198° |
| 2026-05-05 20:31 | 50.41944 | 18.84274 | 7936 ft | 263 kts | 197° |
| 2026-05-05 20:31 | 50.40172 | 18.83460 | 8660 ft | 268 kts | 196° |
| 2026-05-05 20:31 | 50.38365 | 18.82627 | 9350 ft | 274 kts | 196° |
| 2026-05-05 20:31 | 50.36518 | 18.81768 | 10027 ft | 279 kts | 196° |
| 2026-05-05 20:32 | 50.34589 | 18.80865 | 10278 ft | 301 kts | 196° |
| 2026-05-05 20:32 | 50.32507 | 18.79883 | 10471 ft | 323 kts | 196° |
| 2026-05-05 20:32 | 50.30289 | 18.78832 | 10693 ft | 342 kts | 197° |
| 2026-05-05 20:32 | 50.27977 | 18.77734 | 11229 ft | 349 kts | 197° |
| 2026-05-05 20:33 | 50.25646 | 18.76624 | 11951 ft | 351 kts | 197° |
| 2026-05-05 20:33 | 50.23305 | 18.75509 | 12687 ft | 353 kts | 197° |
| 2026-05-05 20:33 | 50.20945 | 18.74385 | 13365 ft | 356 kts | 197° |
| 2026-05-05 20:33 | 50.18564 | 18.73252 | 13976 ft | 360 kts | 197° |
| 2026-05-05 20:34 | 50.16154 | 18.72107 | 14538 ft | 364 kts | 197° |
| 2026-05-05 20:34 | 50.13711 | 18.70946 | 15108 ft | 369 kts | 197° |
| 2026-05-05 20:34 | 50.11245 | 18.69776 | 15676 ft | 373 kts | 197° |
| 2026-05-05 20:34 | 50.08750 | 18.68594 | 16248 ft | 376 kts | 197° |
| 2026-05-05 20:35 | 50.06235 | 18.67403 | 16819 ft | 380 kts | 197° |
| 2026-05-05 20:35 | 50.03692 | 18.66200 | 17371 ft | 384 kts | 197° |
| 2026-05-05 20:35 | 50.01124 | 18.64987 | 17916 ft | 387 kts | 197° |
| 2026-05-05 20:35 | 49.98532 | 18.63765 | 18419 ft | 391 kts | 197° |
| 2026-05-05 20:36 | 49.95922 | 18.62534 | 18903 ft | 394 kts | 197° |
| 2026-05-05 20:36 | 49.93321 | 18.61309 | 19378 ft | 397 kts | 198° |
| 2026-05-05 20:36 | 49.90666 | 18.60061 | 19850 ft | 400 kts | 198° |
| 2026-05-05 20:36 | 49.87999 | 18.58767 | 20308 ft | 403 kts | 201° |
| 2026-05-05 20:37 | 49.85493 | 18.56806 | 20746 ft | 406 kts | 213° |
| 2026-05-05 20:37 | 49.83951 | 18.55054 | 21059 ft | 407 kts | 220° |
| 2026-05-05 20:37 | 49.81386 | 18.50793 | 21672 ft | 411 kts | 232° |
| 2026-05-05 20:37 | 49.79648 | 18.47262 | 22120 ft | 413 kts | 233° |
| 2026-05-05 20:38 | 49.77923 | 18.43693 | 22558 ft | 416 kts | 233° |
| 2026-05-05 20:38 | 49.76770 | 18.41306 | 22856 ft | 418 kts | 233° |
| 2026-05-05 20:38 | 49.75017 | 18.37699 | 23311 ft | 420 kts | 233° |
| 2026-05-05 20:38 | 49.73375 | 18.34346 | 23686 ft | 421 kts | 233° |
| 2026-05-05 20:39 | 49.71591 | 18.30730 | 24072 ft | 423 kts | 233° |
| 2026-05-05 20:39 | 49.69792 | 18.27103 | 24443 ft | 425 kts | 233° |
| 2026-05-05 20:39 | 49.67991 | 18.23485 | 24810 ft | 426 kts | 232° |
| 2026-05-05 20:39 | 49.66175 | 18.19848 | 25151 ft | 428 kts | 232° |
| 2026-05-05 20:40 | 49.64357 | 18.16213 | 25554 ft | 428 kts | 233° |
| 2026-05-05 20:40 | 49.62527 | 18.12557 | 25851 ft | 432 kts | 232° |
| 2026-05-05 20:40 | 49.60680 | 18.08873 | 26165 ft | 433 kts | 233° |
| 2026-05-05 20:40 | 49.58840 | 18.05207 | 26542 ft | 434 kts | 233° |
| 2026-05-05 20:41 | 49.56975 | 18.01495 | 26746 ft | 439 kts | 233° |
| 2026-05-05 20:41 | 49.55107 | 17.97784 | 27138 ft | 438 kts | 233° |
| 2026-05-05 20:41 | 49.53236 | 17.94071 | 27479 ft | 440 kts | 233° |
| 2026-05-05 20:41 | 49.51354 | 17.90342 | 27628 ft | 445 kts | 233° |
| 2026-05-05 20:42 | 49.49450 | 17.86575 | 27993 ft | 444 kts | 233° |
| 2026-05-05 20:42 | 49.47573 | 17.82866 | 28299 ft | 446 kts | 233° |
| 2026-05-05 20:42 | 49.45666 | 17.79103 | 28614 ft | 446 kts | 233° |
| 2026-05-05 20:42 | 49.43762 | 17.75351 | 29005 ft | 446 kts | 233° |
| 2026-05-05 20:43 | 49.41849 | 17.71587 | 29390 ft | 445 kts | 233° |
| 2026-05-05 20:43 | 49.39947 | 17.67849 | 29768 ft | 444 kts | 233° |
| 2026-05-05 20:43 | 49.38041 | 17.64108 | 30109 ft | 443 kts | 233° |
| 2026-05-05 20:43 | 49.36143 | 17.60387 | 30444 ft | 442 kts | 233° |
| 2026-05-05 20:44 | 49.34248 | 17.56678 | 30782 ft | 441 kts | 232° |
| 2026-05-05 20:44 | 49.32352 | 17.52981 | 31116 ft | 440 kts | 232° |
| 2026-05-05 20:44 | 49.30387 | 17.49395 | 31410 ft | 439 kts | 230° |
| 2026-05-05 20:44 | 49.28355 | 17.45897 | 31728 ft | 438 kts | 229° |
| 2026-05-05 20:45 | 49.24255 | 17.39011 | 32383 ft | 436 kts | 228° |
| 2026-05-05 20:45 | 49.22239 | 17.35624 | 32699 ft | 434 kts | 228° |
| 2026-05-05 20:45 | 49.20211 | 17.32201 | 32979 ft | 434 kts | 228° |
| 2026-05-05 20:46 | 49.18193 | 17.28783 | 33258 ft | 433 kts | 228° |
| 2026-05-05 20:46 | 49.16174 | 17.25358 | 33538 ft | 432 kts | 228° |
| 2026-05-05 20:46 | 49.14161 | 17.21944 | 33813 ft | 432 kts | 228° |
| 2026-05-05 20:46 | 49.12156 | 17.18545 | 34051 ft | 431 kts | 228° |
| 2026-05-05 20:47 | 49.10151 | 17.15149 | 34288 ft | 430 kts | 228° |
| 2026-05-05 20:47 | 49.08147 | 17.11761 | 34509 ft | 430 kts | 228° |
| 2026-05-05 20:47 | 49.06144 | 17.08377 | 34719 ft | 429 kts | 228° |
| 2026-05-05 20:47 | 49.04145 | 17.05007 | 34959 ft | 428 kts | 228° |
| 2026-05-05 20:48 | 49.02149 | 17.01646 | 35233 ft | 426 kts | 228° |
| 2026-05-05 20:48 | 49.00159 | 16.98300 | 35446 ft | 426 kts | 228° |
| 2026-05-05 20:48 | 48.98167 | 16.94953 | 35613 ft | 426 kts | 228° |
| 2026-05-05 20:48 | 48.96173 | 16.91610 | 35770 ft | 426 kts | 228° |
| 2026-05-05 20:49 | 48.92172 | 16.84910 | 35788 ft | 427 kts | 228° |
| 2026-05-05 20:49 | 48.88209 | 16.78292 | 35785 ft | 425 kts | 228° |
| 2026-05-05 20:50 | 48.84233 | 16.71667 | 35775 ft | 423 kts | 228° |
| 2026-05-05 20:50 | 48.80275 | 16.65089 | 35771 ft | 422 kts | 228° |
| 2026-05-05 20:51 | 48.76678 | 16.58089 | 35778 ft | 420 kts | 237° |
| 2026-05-05 20:51 | 48.73553 | 16.50618 | 35770 ft | 420 kts | 238° |
| 2026-05-05 20:52 | 48.70423 | 16.43128 | 35759 ft | 420 kts | 238° |
| 2026-05-05 20:52 | 48.67271 | 16.35664 | 35761 ft | 421 kts | 238° |
| 2026-05-05 20:53 | 48.64100 | 16.28208 | 35761 ft | 422 kts | 237° |
| 2026-05-05 20:53 | 48.60918 | 16.20760 | 35758 ft | 422 kts | 237° |
| 2026-05-05 20:54 | 48.57727 | 16.13312 | 35755 ft | 423 kts | 237° |
| 2026-05-05 20:54 | 48.54523 | 16.05851 | 35752 ft | 423 kts | 237° |
| 2026-05-05 20:55 | 48.51332 | 15.98444 | 35752 ft | 423 kts | 237° |
| 2026-05-05 20:55 | 48.48120 | 15.91007 | 35750 ft | 423 kts | 237° |
| 2026-05-05 20:56 | 48.44909 | 15.83592 | 35749 ft | 422 kts | 237° |
| 2026-05-05 20:56 | 48.41691 | 15.76183 | 35752 ft | 422 kts | 237° |
| 2026-05-05 20:57 | 48.38479 | 15.68806 | 35755 ft | 421 kts | 237° |
| 2026-05-05 20:57 | 48.35260 | 15.61435 | 35759 ft | 420 kts | 237° |
| 2026-05-05 20:58 | 48.32047 | 15.54097 | 35765 ft | 420 kts | 237° |
| 2026-05-05 20:58 | 48.28835 | 15.46780 | 35765 ft | 419 kts | 237° |
| 2026-05-05 20:59 | 48.25615 | 15.39465 | 35769 ft | 419 kts | 237° |
| 2026-05-05 20:59 | 48.22645 | 15.32736 | 35769 ft | 419 kts | 237° |
| 2026-05-05 21:00 | 48.19420 | 15.25449 | 35776 ft | 419 kts | 237° |
| 2026-05-05 21:00 | 48.16175 | 15.18134 | 35786 ft | 419 kts | 236° |
| 2026-05-05 21:01 | 48.12939 | 15.10862 | 35788 ft | 419 kts | 236° |
| 2026-05-05 21:01 | 48.09711 | 15.03625 | 35797 ft | 420 kts | 236° |
| 2026-05-05 21:02 | 48.06473 | 14.96386 | 35797 ft | 420 kts | 236° |
| 2026-05-05 21:02 | 48.03199 | 14.89087 | 35809 ft | 420 kts | 236° |
| 2026-05-05 21:03 | 47.99942 | 14.81844 | 35817 ft | 420 kts | 236° |
| 2026-05-05 21:03 | 47.96685 | 14.74618 | 35824 ft | 421 kts | 236° |
| 2026-05-05 21:04 | 47.93407 | 14.67367 | 35825 ft | 421 kts | 236° |
| 2026-05-05 21:04 | 47.90132 | 14.60142 | 35828 ft | 422 kts | 236° |
| 2026-05-05 21:05 | 47.86846 | 14.52912 | 35837 ft | 422 kts | 236° |
| 2026-05-05 21:05 | 47.83563 | 14.45706 | 35848 ft | 422 kts | 235° |
| 2026-05-05 21:06 | 47.80267 | 14.38492 | 35857 ft | 421 kts | 235° |
| 2026-05-05 21:06 | 47.76954 | 14.31260 | 35853 ft | 421 kts | 235° |
| 2026-05-05 21:07 | 47.73657 | 14.24083 | 35844 ft | 421 kts | 235° |
| 2026-05-05 21:07 | 47.70365 | 14.16932 | 35851 ft | 420 kts | 235° |
| 2026-05-05 21:08 | 47.67051 | 14.09755 | 35865 ft | 419 kts | 235° |
| 2026-05-05 21:08 | 47.63755 | 14.02635 | 35871 ft | 418 kts | 235° |
| 2026-05-05 21:09 | 47.60482 | 13.95582 | 35865 ft | 418 kts | 235° |
| 2026-05-05 21:09 | 47.57194 | 13.88516 | 35876 ft | 417 kts | 235° |
| 2026-05-05 21:10 | 47.53903 | 13.81461 | 35865 ft | 416 kts | 234° |
| 2026-05-05 21:10 | 47.51084 | 13.75433 | 35876 ft | 415 kts | 234° |
| 2026-05-05 21:11 | 47.47800 | 13.68427 | 35881 ft | 414 kts | 234° |
| 2026-05-05 21:11 | 47.44523 | 13.61453 | 35890 ft | 413 kts | 234° |
| 2026-05-05 21:12 | 47.41238 | 13.54482 | 35885 ft | 413 kts | 234° |
| 2026-05-05 21:12 | 47.37953 | 13.47526 | 35883 ft | 412 kts | 234° |
| 2026-05-05 21:13 | 47.34672 | 13.40597 | 35893 ft | 411 kts | 234° |
| 2026-05-05 21:13 | 47.31410 | 13.33726 | 35893 ft | 410 kts | 234° |
| 2026-05-05 21:14 | 47.28137 | 13.26847 | 35890 ft | 410 kts | 234° |
| 2026-05-05 21:14 | 47.24862 | 13.19981 | 35912 ft | 409 kts | 234° |
| 2026-05-05 21:15 | 47.21592 | 13.13144 | 35921 ft | 408 kts | 234° |
| 2026-05-05 21:15 | 47.18325 | 13.06330 | 35903 ft | 407 kts | 234° |
| 2026-05-05 21:16 | 47.15060 | 12.99537 | 35922 ft | 407 kts | 234° |
| 2026-05-05 21:16 | 47.11792 | 12.92753 | 35930 ft | 407 kts | 234° |
| 2026-05-05 21:17 | 47.08521 | 12.85981 | 35921 ft | 407 kts | 234° |
| 2026-05-05 21:17 | 47.05241 | 12.79206 | 35933 ft | 407 kts | 234° |
| 2026-05-05 21:18 | 47.01956 | 12.72437 | 35939 ft | 407 kts | 234° |
| 2026-05-05 21:18 | 46.98693 | 12.65729 | 35948 ft | 407 kts | 234° |
| 2026-05-05 21:19 | 46.95402 | 12.58981 | 35959 ft | 406 kts | 234° |
| 2026-05-05 21:19 | 46.92117 | 12.52261 | 36005 ft | 404 kts | 234° |
| 2026-05-05 21:20 | 46.88846 | 12.45586 | 36000 ft | 403 kts | 234° |
| 2026-05-05 21:20 | 46.85583 | 12.38941 | 36032 ft | 401 kts | 234° |
| 2026-05-05 21:21 | 46.82868 | 12.33423 | 36131 ft | 404 kts | 234° |
| 2026-05-05 21:21 | 46.80701 | 12.29011 | 36445 ft | 403 kts | 236° |
| 2026-05-05 21:21 | 46.79694 | 12.26665 | 36566 ft | 403 kts | 242° |
| 2026-05-05 21:22 | 46.78427 | 12.23014 | 36800 ft | 403 kts | 242° |
| 2026-05-05 21:22 | 46.77189 | 12.19401 | 36938 ft | 403 kts | 242° |
| 2026-05-05 21:22 | 46.74663 | 12.12084 | 37062 ft | 404 kts | 242° |
| 2026-05-05 21:23 | 46.72115 | 12.04771 | 37055 ft | 405 kts | 242° |
| 2026-05-05 21:23 | 46.69545 | 11.97433 | 37029 ft | 408 kts | 242° |
| 2026-05-05 21:24 | 46.66949 | 11.90044 | 37030 ft | 409 kts | 242° |
| 2026-05-05 21:24 | 46.64349 | 11.82658 | 36995 ft | 410 kts | 241° |
| 2026-05-05 21:25 | 46.61764 | 11.75339 | 36965 ft | 409 kts | 241° |
| 2026-05-05 21:25 | 46.58584 | 11.68533 | 36981 ft | 406 kts | 231° |
| 2026-05-05 21:26 | 46.55031 | 11.62190 | 36975 ft | 403 kts | 231° |
| 2026-05-05 21:26 | 46.51508 | 11.55891 | 36927 ft | 398 kts | 230° |
| 2026-05-05 21:27 | 46.48041 | 11.49669 | 36989 ft | 395 kts | 231° |
| 2026-05-05 21:27 | 46.44612 | 11.43509 | 36980 ft | 394 kts | 231° |
| 2026-05-05 21:28 | 46.41150 | 11.37298 | 36972 ft | 394 kts | 231° |
| 2026-05-05 21:28 | 46.37722 | 11.31164 | 36977 ft | 395 kts | 231° |
| 2026-05-05 21:29 | 46.34263 | 11.24987 | 37041 ft | 395 kts | 231° |
| 2026-05-05 21:29 | 46.30793 | 11.18806 | 37049 ft | 395 kts | 231° |
| 2026-05-05 21:30 | 46.27310 | 11.12615 | 37055 ft | 397 kts | 231° |
| 2026-05-05 21:30 | 46.23818 | 11.06423 | 37052 ft | 398 kts | 230° |
| 2026-05-05 21:31 | 46.20328 | 11.00246 | 37040 ft | 399 kts | 231° |
| 2026-05-05 21:31 | 46.16790 | 10.94001 | 37034 ft | 399 kts | 231° |
| 2026-05-05 21:32 | 46.13277 | 10.87820 | 37028 ft | 398 kts | 230° |
| 2026-05-05 21:32 | 46.09785 | 10.81679 | 37026 ft | 399 kts | 230° |
| 2026-05-05 21:33 | 46.06253 | 10.75482 | 37014 ft | 401 kts | 230° |
| 2026-05-05 21:33 | 46.02705 | 10.69272 | 37003 ft | 401 kts | 230° |
| 2026-05-05 21:34 | 45.99156 | 10.63074 | 37022 ft | 401 kts | 230° |
| 2026-05-05 21:34 | 45.95601 | 10.56879 | 37006 ft | 402 kts | 230° |
| 2026-05-05 21:35 | 45.92042 | 10.50694 | 37007 ft | 401 kts | 230° |
| 2026-05-05 21:35 | 45.88488 | 10.44531 | 37012 ft | 401 kts | 230° |
| 2026-05-05 21:36 | 45.84942 | 10.38392 | 36994 ft | 399 kts | 230° |
| 2026-05-05 21:36 | 45.81399 | 10.32274 | 37008 ft | 399 kts | 230° |
| 2026-05-05 21:37 | 45.77851 | 10.26160 | 37005 ft | 398 kts | 230° |
| 2026-05-05 21:37 | 45.74333 | 10.20113 | 36998 ft | 397 kts | 230° |
| 2026-05-05 21:38 | 45.70770 | 10.14001 | 36997 ft | 397 kts | 230° |
| 2026-05-05 21:38 | 45.67246 | 10.07969 | 36988 ft | 397 kts | 230° |
| 2026-05-05 21:39 | 45.63714 | 10.01935 | 36995 ft | 395 kts | 230° |
| 2026-05-05 21:39 | 45.60196 | 9.95939 | 36992 ft | 393 kts | 230° |
| 2026-05-05 21:40 | 45.56676 | 9.89953 | 36991 ft | 392 kts | 230° |
| 2026-05-05 21:40 | 45.53170 | 9.84003 | 36991 ft | 391 kts | 230° |
| 2026-05-05 21:41 | 45.49691 | 9.78110 | 36992 ft | 390 kts | 230° |
| 2026-05-05 21:41 | 45.46187 | 9.72189 | 37065 ft | 390 kts | 230° |
| 2026-05-05 21:42 | 45.42683 | 9.66280 | 37069 ft | 390 kts | 230° |
| 2026-05-05 21:42 | 45.39213 | 9.60440 | 37068 ft | 390 kts | 230° |
| 2026-05-05 21:43 | 45.35695 | 9.54531 | 37054 ft | 391 kts | 230° |
| 2026-05-05 21:43 | 45.32173 | 9.48629 | 36976 ft | 392 kts | 230° |
| 2026-05-05 21:44 | 45.28627 | 9.42700 | 36971 ft | 392 kts | 230° |
| 2026-05-05 21:44 | 45.25089 | 9.36796 | 36972 ft | 393 kts | 230° |
| 2026-05-05 21:45 | 45.21541 | 9.30887 | 36974 ft | 393 kts | 230° |
| 2026-05-05 21:45 | 45.17983 | 9.24975 | 36974 ft | 394 kts | 230° |
| 2026-05-05 21:46 | 45.14419 | 9.19066 | 36971 ft | 394 kts | 230° |
| 2026-05-05 21:46 | 45.10854 | 9.13165 | 36970 ft | 394 kts | 230° |
| 2026-05-05 21:47 | 45.07284 | 9.07271 | 36968 ft | 394 kts | 229° |
| 2026-05-05 21:47 | 45.03738 | 9.01427 | 36968 ft | 394 kts | 229° |
| 2026-05-05 21:48 | 45.00169 | 8.95558 | 36967 ft | 394 kts | 229° |
| 2026-05-05 21:48 | 44.96596 | 8.89695 | 36965 ft | 393 kts | 229° |
| 2026-05-05 21:49 | 44.93033 | 8.83860 | 36968 ft | 393 kts | 229° |
| 2026-05-05 21:49 | 44.89457 | 8.78016 | 36971 ft | 392 kts | 229° |
| 2026-05-05 21:50 | 44.85885 | 8.72191 | 36972 ft | 392 kts | 229° |
| 2026-05-05 21:50 | 44.82314 | 8.66379 | 36972 ft | 392 kts | 229° |
| 2026-05-05 21:51 | 44.78767 | 8.60619 | 36969 ft | 392 kts | 229° |
| 2026-05-05 21:51 | 44.75193 | 8.54827 | 36977 ft | 391 kts | 229° |
| 2026-05-05 21:52 | 44.69831 | 8.46158 | 36978 ft | 391 kts | 229° |
| 2026-05-05 21:53 | 44.66259 | 8.40399 | 36973 ft | 391 kts | 229° |
| 2026-05-05 21:53 | 44.62680 | 8.34639 | 36971 ft | 391 kts | 229° |
| 2026-05-05 21:54 | 44.59102 | 8.28893 | 36978 ft | 391 kts | 229° |
| 2026-05-05 21:54 | 44.55507 | 8.23132 | 36981 ft | 392 kts | 229° |
| 2026-05-05 21:55 | 44.51908 | 8.17375 | 36967 ft | 392 kts | 229° |
| 2026-05-05 21:55 | 44.48308 | 8.11628 | 36973 ft | 392 kts | 229° |
| 2026-05-05 21:56 | 44.44737 | 8.05940 | 36968 ft | 392 kts | 229° |
| 2026-05-05 21:56 | 44.41138 | 8.00218 | 36971 ft | 392 kts | 229° |
| 2026-05-05 21:57 | 44.37532 | 7.94496 | 36977 ft | 391 kts | 229° |
| 2026-05-05 21:57 | 44.33938 | 7.88804 | 36969 ft | 390 kts | 229° |
| 2026-05-05 21:58 | 44.30355 | 7.83139 | 36967 ft | 390 kts | 229° |
| 2026-05-05 21:58 | 44.26736 | 7.77513 | 36982 ft | 387 kts | 225° |
| 2026-05-05 21:59 | 44.22711 | 7.72503 | 37000 ft | 389 kts | 222° |
| 2026-05-05 21:59 | 44.18595 | 7.67497 | 36987 ft | 396 kts | 222° |
| 2026-05-05 22:00 | 44.14469 | 7.62368 | 36963 ft | 398 kts | 225° |
| 2026-05-05 22:00 | 44.10806 | 7.56613 | 36987 ft | 401 kts | 229° |
| 2026-05-05 22:01 | 44.07191 | 7.50775 | 36972 ft | 395 kts | 229° |
| 2026-05-05 22:01 | 44.03612 | 7.45031 | 36981 ft | 390 kts | 229° |
| 2026-05-05 22:02 | 44.00055 | 7.39358 | 36979 ft | 389 kts | 229° |
| 2026-05-05 22:02 | 43.96481 | 7.33674 | 36971 ft | 392 kts | 229° |
| 2026-05-05 22:03 | 43.92896 | 7.27983 | 36965 ft | 396 kts | 229° |
| 2026-05-05 22:03 | 43.89244 | 7.22197 | 36959 ft | 398 kts | 229° |
| 2026-05-05 22:04 | 43.85607 | 7.16448 | 36957 ft | 394 kts | 229° |
| 2026-05-05 22:04 | 43.82007 | 7.10767 | 36945 ft | 390 kts | 229° |
| 2026-05-05 22:05 | 43.78439 | 7.05144 | 36952 ft | 388 kts | 229° |
| 2026-05-05 22:05 | 43.74875 | 6.99542 | 36957 ft | 387 kts | 229° |
| 2026-05-05 22:06 | 43.71730 | 6.93528 | 36943 ft | 389 kts | 240° |
| 2026-05-05 22:06 | 43.69571 | 6.86596 | 36960 ft | 397 kts | 246° |
| 2026-05-05 22:07 | 43.67517 | 6.79521 | 36953 ft | 401 kts | 246° |
| 2026-05-05 22:07 | 43.65421 | 6.72369 | 36957 ft | 403 kts | 246° |
| 2026-05-05 22:08 | 43.63300 | 6.65194 | 36948 ft | 402 kts | 245° |
| 2026-05-05 22:08 | 43.61540 | 6.59262 | 36954 ft | 395 kts | 245° |
| 2026-05-05 22:09 | 43.59460 | 6.52274 | 36961 ft | 393 kts | 245° |
| 2026-05-05 22:09 | 43.57389 | 6.45341 | 36950 ft | 394 kts | 245° |
| 2026-05-05 22:10 | 43.55302 | 6.38366 | 36933 ft | 394 kts | 245° |
| 2026-05-05 22:10 | 43.53206 | 6.31385 | 36936 ft | 394 kts | 245° |
| 2026-05-05 22:11 | 43.51100 | 6.24382 | 36947 ft | 396 kts | 245° |
| 2026-05-05 22:11 | 43.48982 | 6.17360 | 36945 ft | 397 kts | 245° |
| 2026-05-05 22:12 | 43.46856 | 6.10333 | 36936 ft | 398 kts | 245° |
| 2026-05-05 22:12 | 43.44730 | 6.03329 | 36945 ft | 399 kts | 245° |
| 2026-05-05 22:13 | 43.42580 | 5.96273 | 36945 ft | 400 kts | 245° |
| 2026-05-05 22:13 | 43.40422 | 5.89200 | 36937 ft | 401 kts | 245° |
| 2026-05-05 22:14 | 43.38261 | 5.82135 | 36921 ft | 401 kts | 245° |
| 2026-05-05 22:14 | 43.36089 | 5.75056 | 36913 ft | 401 kts | 245° |
| 2026-05-05 22:15 | 43.33920 | 5.68001 | 36922 ft | 400 kts | 245° |
| 2026-05-05 22:15 | 43.31748 | 5.60962 | 36924 ft | 400 kts | 245° |
| 2026-05-05 22:16 | 43.29580 | 5.53948 | 36923 ft | 399 kts | 245° |
| 2026-05-05 22:16 | 43.27408 | 5.46941 | 36899 ft | 398 kts | 245° |
| 2026-05-05 22:17 | 43.25242 | 5.39972 | 36911 ft | 397 kts | 245° |
| 2026-05-05 22:17 | 43.22541 | 5.33444 | 36919 ft | 393 kts | 232° |
| 2026-05-05 22:18 | 43.18776 | 5.28047 | 36917 ft | 392 kts | 221° |
| 2026-05-05 22:18 | 43.14617 | 5.23210 | 36911 ft | 392 kts | 221° |
| 2026-05-05 22:19 | 43.10454 | 5.18388 | 36914 ft | 392 kts | 221° |
| 2026-05-05 22:19 | 43.06316 | 5.13574 | 36906 ft | 393 kts | 221° |
| 2026-05-05 22:20 | 43.02150 | 5.08721 | 36910 ft | 394 kts | 221° |
| 2026-05-05 22:20 | 42.97967 | 5.03851 | 36908 ft | 396 kts | 221° |
| 2026-05-05 22:21 | 42.93768 | 4.98971 | 36912 ft | 397 kts | 221° |
| 2026-05-05 22:21 | 42.89553 | 4.94082 | 36908 ft | 398 kts | 221° |
| 2026-05-05 22:22 | 42.85318 | 4.89178 | 36911 ft | 400 kts | 221° |
| 2026-05-05 22:22 | 42.81073 | 4.84273 | 36908 ft | 401 kts | 221° |
| 2026-05-05 22:23 | 42.76810 | 4.79355 | 36910 ft | 402 kts | 221° |
| 2026-05-05 22:23 | 42.72542 | 4.74441 | 36910 ft | 402 kts | 221° |
| 2026-05-05 22:24 | 42.68272 | 4.69534 | 36909 ft | 402 kts | 221° |
| 2026-05-05 22:24 | 42.63998 | 4.64631 | 36906 ft | 402 kts | 221° |
| 2026-05-05 22:25 | 42.59722 | 4.59736 | 36910 ft | 402 kts | 221° |
| 2026-05-05 22:25 | 42.55473 | 4.54880 | 36911 ft | 401 kts | 221° |
| 2026-05-05 22:26 | 42.51209 | 4.50017 | 36913 ft | 400 kts | 221° |
| 2026-05-05 22:26 | 42.46942 | 4.45157 | 36910 ft | 400 kts | 221° |
| 2026-05-05 22:27 | 42.42683 | 4.40317 | 36914 ft | 399 kts | 221° |
| 2026-05-05 22:27 | 42.38423 | 4.35484 | 36911 ft | 399 kts | 221° |
| 2026-05-05 22:28 | 42.34158 | 4.30653 | 36913 ft | 399 kts | 221° |
| 2026-05-05 22:28 | 42.29897 | 4.25836 | 36915 ft | 399 kts | 221° |
| 2026-05-05 22:29 | 42.25344 | 4.21607 | 36922 ft | 403 kts | 209° |
| 2026-05-05 22:29 | 42.20045 | 4.18955 | 36914 ft | 407 kts | 202° |
| 2026-05-05 22:30 | 42.14679 | 4.16508 | 36921 ft | 408 kts | 202° |
| 2026-05-05 22:30 | 42.09301 | 4.14034 | 36909 ft | 408 kts | 203° |
| 2026-05-05 22:31 | 42.03920 | 4.11544 | 36914 ft | 409 kts | 203° |
| 2026-05-05 22:31 | 41.98528 | 4.09046 | 36915 ft | 410 kts | 203° |
| 2026-05-05 22:32 | 41.93132 | 4.06549 | 36916 ft | 411 kts | 203° |
| 2026-05-05 22:32 | 41.87728 | 4.04053 | 36912 ft | 411 kts | 203° |
| 2026-05-05 22:33 | 41.82310 | 4.01556 | 36920 ft | 411 kts | 203° |
| 2026-05-05 22:33 | 41.76892 | 3.99063 | 36918 ft | 412 kts | 203° |
| 2026-05-05 22:34 | 41.71454 | 3.96564 | 36633 ft | 416 kts | 203° |
| 2026-05-05 22:34 | 41.68722 | 3.95311 | 36391 ft | 413 kts | 203° |
| 2026-05-05 22:34 | 41.66015 | 3.94072 | 36122 ft | 408 kts | 203° |
| 2026-05-05 22:34 | 41.63352 | 3.92856 | 35859 ft | 401 kts | 203° |
| 2026-05-05 22:35 | 41.60721 | 3.91655 | 35608 ft | 397 kts | 204° |
| 2026-05-05 22:35 | 41.58151 | 3.90481 | 35362 ft | 394 kts | 204° |
| 2026-05-05 22:35 | 41.55574 | 3.89304 | 35118 ft | 391 kts | 204° |
| 2026-05-05 22:35 | 41.53005 | 3.88131 | 34871 ft | 388 kts | 204° |
| 2026-05-05 22:36 | 41.50462 | 3.86972 | 34630 ft | 385 kts | 204° |
| 2026-05-05 22:36 | 41.47942 | 3.85824 | 34360 ft | 379 kts | 204° |
| 2026-05-05 22:36 | 41.45473 | 3.84703 | 33817 ft | 371 kts | 204° |
| 2026-05-05 22:36 | 41.43034 | 3.83593 | 33190 ft | 370 kts | 204° |
| 2026-05-05 22:37 | 41.40610 | 3.82491 | 32782 ft | 366 kts | 204° |
| 2026-05-05 22:37 | 41.38207 | 3.81398 | 32359 ft | 363 kts | 204° |
| 2026-05-05 22:37 | 41.35824 | 3.80317 | 31962 ft | 360 kts | 204° |
| 2026-05-05 22:37 | 41.33461 | 3.79244 | 31585 ft | 357 kts | 204° |
| 2026-05-05 22:38 | 41.31124 | 3.78186 | 31211 ft | 353 kts | 204° |
| 2026-05-05 22:38 | 41.28809 | 3.77138 | 30837 ft | 350 kts | 204° |
| 2026-05-05 22:38 | 41.26499 | 3.76091 | 30485 ft | 353 kts | 204° |
| 2026-05-05 22:38 | 41.24160 | 3.75030 | 30126 ft | 355 kts | 204° |
| 2026-05-05 22:39 | 41.21832 | 3.73978 | 29702 ft | 352 kts | 204° |
| 2026-05-05 22:39 | 41.19521 | 3.72936 | 29300 ft | 348 kts | 204° |
| 2026-05-05 22:39 | 41.17243 | 3.71911 | 28907 ft | 344 kts | 204° |
| 2026-05-05 22:39 | 41.14994 | 3.70898 | 28549 ft | 340 kts | 204° |
| 2026-05-05 22:40 | 41.12793 | 3.69908 | 28169 ft | 337 kts | 204° |
| 2026-05-05 22:40 | 41.10583 | 3.68914 | 27789 ft | 334 kts | 204° |
| 2026-05-05 22:40 | 41.08391 | 3.67927 | 27440 ft | 332 kts | 205° |
| 2026-05-05 22:40 | 41.06192 | 3.66936 | 27061 ft | 336 kts | 204° |
| 2026-05-05 22:41 | 41.03975 | 3.65938 | 26675 ft | 335 kts | 205° |
| 2026-05-05 22:41 | 41.01777 | 3.64952 | 26300 ft | 332 kts | 205° |
| 2026-05-05 22:41 | 40.99598 | 3.63976 | 25941 ft | 329 kts | 205° |
| 2026-05-05 22:41 | 40.97439 | 3.63010 | 25580 ft | 326 kts | 205° |
| 2026-05-05 22:42 | 40.95290 | 3.62048 | 25228 ft | 324 kts | 205° |
| 2026-05-05 22:42 | 40.93167 | 3.61098 | 24863 ft | 321 kts | 205° |
| 2026-05-05 22:42 | 40.91061 | 3.60156 | 24521 ft | 319 kts | 205° |
| 2026-05-05 22:42 | 40.88963 | 3.59218 | 24172 ft | 317 kts | 205° |
| 2026-05-05 22:43 | 40.86879 | 3.58287 | 23828 ft | 315 kts | 205° |
| 2026-05-05 22:43 | 40.84799 | 3.57358 | 23474 ft | 315 kts | 205° |
| 2026-05-05 22:43 | 40.82723 | 3.56430 | 23071 ft | 315 kts | 205° |
| 2026-05-05 22:43 | 40.80649 | 3.55505 | 22696 ft | 314 kts | 205° |
| 2026-05-05 22:44 | 40.78587 | 3.54587 | 22356 ft | 312 kts | 205° |
| 2026-05-05 22:44 | 40.76534 | 3.53673 | 22005 ft | 310 kts | 205° |
| 2026-05-05 22:44 | 40.74495 | 3.52766 | 21651 ft | 309 kts | 205° |
| 2026-05-05 22:44 | 40.72489 | 3.51873 | 21310 ft | 308 kts | 205° |
| 2026-05-05 22:45 | 40.70458 | 3.50971 | 20965 ft | 307 kts | 205° |
| 2026-05-05 22:45 | 40.68434 | 3.50071 | 20626 ft | 307 kts | 205° |
| 2026-05-05 22:45 | 40.66410 | 3.49173 | 20285 ft | 307 kts | 204° |
| 2026-05-05 22:45 | 40.64387 | 3.48275 | 19944 ft | 305 kts | 204° |
| 2026-05-05 22:46 | 40.62383 | 3.47388 | 19604 ft | 303 kts | 204° |
| 2026-05-05 22:46 | 40.60391 | 3.46506 | 19273 ft | 301 kts | 204° |
| 2026-05-05 22:46 | 40.58414 | 3.45631 | 18939 ft | 299 kts | 204° |
| 2026-05-05 22:46 | 40.56450 | 3.44762 | 18611 ft | 297 kts | 204° |
| 2026-05-05 22:47 | 40.54496 | 3.43898 | 18281 ft | 296 kts | 204° |
| 2026-05-05 22:47 | 40.52553 | 3.43038 | 17908 ft | 294 kts | 204° |
| 2026-05-05 22:47 | 40.50613 | 3.42180 | 17559 ft | 294 kts | 204° |
| 2026-05-05 22:47 | 40.48669 | 3.41321 | 17213 ft | 295 kts | 204° |
| 2026-05-05 22:48 | 40.46711 | 3.40457 | 16880 ft | 297 kts | 204° |
| 2026-05-05 22:48 | 40.44763 | 3.39600 | 16539 ft | 294 kts | 204° |
| 2026-05-05 22:48 | 40.42840 | 3.38690 | 16008 ft | 297 kts | 206° |
| 2026-05-05 22:48 | 40.40928 | 3.37651 | 15596 ft | 297 kts | 207° |
| 2026-05-05 22:49 | 40.39028 | 3.36582 | 15225 ft | 296 kts | 207° |
| 2026-05-05 22:49 | 40.37139 | 3.35516 | 14877 ft | 294 kts | 207° |
| 2026-05-05 22:49 | 40.35261 | 3.34459 | 14552 ft | 293 kts | 207° |
| 2026-05-05 22:49 | 40.33396 | 3.33414 | 14225 ft | 291 kts | 207° |
| 2026-05-05 22:50 | 40.31534 | 3.32376 | 13901 ft | 290 kts | 207° |
| 2026-05-05 22:50 | 40.29683 | 3.31346 | 13550 ft | 289 kts | 206° |
| 2026-05-05 22:50 | 40.27842 | 3.30325 | 13199 ft | 287 kts | 206° |
| 2026-05-05 22:50 | 40.25999 | 3.29305 | 12861 ft | 285 kts | 206° |
| 2026-05-05 22:51 | 40.24172 | 3.28294 | 12537 ft | 283 kts | 207° |
| 2026-05-05 22:51 | 40.22387 | 3.27308 | 12226 ft | 281 kts | 206° |
| 2026-05-05 22:51 | 40.20590 | 3.26316 | 11906 ft | 279 kts | 207° |
| 2026-05-05 22:51 | 40.18803 | 3.25330 | 11597 ft | 278 kts | 206° |
| 2026-05-05 22:52 | 40.17029 | 3.24352 | 11281 ft | 276 kts | 206° |
| 2026-05-05 22:52 | 40.15259 | 3.23377 | 10970 ft | 275 kts | 206° |
| 2026-05-05 22:52 | 40.13499 | 3.22408 | 10660 ft | 274 kts | 206° |
| 2026-05-05 22:52 | 40.11747 | 3.21444 | 10353 ft | 273 kts | 206° |
| 2026-05-05 22:53 | 40.10013 | 3.20491 | 10201 ft | 266 kts | 206° |
| 2026-05-05 22:53 | 40.08315 | 3.19558 | 10073 ft | 263 kts | 206° |
| 2026-05-05 22:53 | 40.06650 | 3.18645 | 9915 ft | 257 kts | 206° |
| 2026-05-05 22:53 | 40.05559 | 3.18046 | 9712 ft | 257 kts | 206° |
| 2026-05-05 22:54 | 40.03920 | 3.17146 | 9430 ft | 255 kts | 206° |
| 2026-05-05 22:54 | 40.02290 | 3.16252 | 9142 ft | 254 kts | 206° |
| 2026-05-05 22:54 | 40.00666 | 3.15361 | 8863 ft | 252 kts | 206° |
| 2026-05-05 22:54 | 39.99054 | 3.14477 | 8585 ft | 251 kts | 206° |
| 2026-05-05 22:55 | 39.97447 | 3.13597 | 8314 ft | 251 kts | 206° |
| 2026-05-05 22:55 | 39.95822 | 3.12706 | 8036 ft | 254 kts | 206° |
| 2026-05-05 22:55 | 39.94189 | 3.11812 | 7753 ft | 254 kts | 206° |
| 2026-05-05 22:55 | 39.92565 | 3.10924 | 7465 ft | 253 kts | 206° |
| 2026-05-05 22:56 | 39.90939 | 3.10036 | 7196 ft | 254 kts | 206° |
| 2026-05-05 22:56 | 39.89308 | 3.09144 | 6901 ft | 254 kts | 206° |
| 2026-05-05 22:56 | 39.87683 | 3.08257 | 6624 ft | 253 kts | 206° |
| 2026-05-05 22:56 | 39.86167 | 3.07430 | 6361 ft | 253 kts | 206° |
| 2026-05-05 22:57 | 39.84543 | 3.06544 | 6056 ft | 253 kts | 206° |
| 2026-05-05 22:57 | 39.82921 | 3.05660 | 5782 ft | 252 kts | 206° |
| 2026-05-05 22:57 | 39.81333 | 3.04795 | 5523 ft | 250 kts | 205° |
| 2026-05-05 22:57 | 39.79733 | 3.03924 | 5247 ft | 249 kts | 205° |
| 2026-05-05 22:58 | 39.78118 | 3.03045 | 4968 ft | 248 kts | 205° |
| 2026-05-05 22:58 | 39.76559 | 3.02197 | 4826 ft | 242 kts | 205° |
| 2026-05-05 22:58 | 39.75038 | 3.01370 | 4699 ft | 235 kts | 205° |
| 2026-05-05 22:58 | 39.73546 | 3.00560 | 4579 ft | 228 kts | 206° |
| 2026-05-05 22:59 | 39.72107 | 2.99778 | 4473 ft | 220 kts | 205° |
| 2026-05-05 22:59 | 39.70722 | 2.99025 | 4366 ft | 213 kts | 206° |
| 2026-05-05 22:59 | 39.69351 | 2.98281 | 4152 ft | 213 kts | 206° |
| 2026-05-05 22:59 | 39.67979 | 2.97536 | 3923 ft | 213 kts | 206° |
| 2026-05-05 23:00 | 39.65264 | 2.96053 | 3460 ft | 207 kts | 210° |
| 2026-05-05 23:00 | 39.64308 | 2.94817 | 3247 ft | 188 kts | 244° |
| 2026-05-05 23:00 | 39.63671 | 2.93338 | 3007 ft | 189 kts | 238° |
| 2026-05-05 23:01 | 39.62971 | 2.91908 | 2743 ft | 184 kts | 238° |
| 2026-05-05 23:01 | 39.62317 | 2.90540 | 2520 ft | 175 kts | 238° |
| 2026-05-05 23:01 | 39.61675 | 2.89181 | 2285 ft | 175 kts | 238° |
| 2026-05-05 23:01 | 39.61070 | 2.87898 | 2042 ft | 162 kts | 239° |
| 2026-05-05 23:02 | 39.60517 | 2.86724 | 1832 ft | 146 kts | 238° |
| 2026-05-05 23:02 | 39.60000 | 2.85631 | 1654 ft | 140 kts | 237° |
| 2026-05-05 23:02 | 39.59496 | 2.84560 | 1466 ft | 139 kts | 237° |
| 2026-05-05 23:02 | 39.58992 | 2.83492 | 1281 ft | 140 kts | 238° |
| 2026-05-05 23:03 | 39.58478 | 2.82400 | 1106 ft | 145 kts | 237° |
| 2026-05-05 23:03 | 39.57944 | 2.81269 | 920 ft | 148 kts | 238° |
| 2026-05-05 23:03 | 39.57404 | 2.80123 | 727 ft | 149 kts | 238° |
| 2026-05-05 23:03 | 39.56865 | 2.78977 | 556 ft | 149 kts | 239° |
| 2026-05-05 23:04 | 39.56323 | 2.77825 | 367 ft | 149 kts | 239° |
| 2026-05-05 23:04 | 39.55787 | 2.76673 | 166 ft | 151 kts | 238° |
| 2026-05-05 23:04 | 39.55244 | 2.75548 | 44 ft | 138 kts | 238° |
| 2026-05-05 23:04 | 39.54801 | 2.74598 | 37 ft | 103 kts | 239° |
| 2026-05-05 23:05 | 39.54504 | 2.73969 | 37 ft | 62 kts | 238° |
| 2026-05-05 23:05 | 39.54440 | 2.73770 | 37 ft | 10 kts | 301° |
| 2026-05-05 23:05 | 39.54487 | 2.73723 | 37 ft | 5 kts | 329° |
| 2026-05-05 23:05 | 39.54518 | 2.73700 | 37 ft | 5 kts | 329° |
| 2026-05-05 23:06 | 39.54548 | 2.73676 | 37 ft | 5 kts | 329° |
| 2026-05-05 23:06 | 39.54587 | 2.73646 | 37 ft | 9 kts | 328° |
| 2026-05-05 23:06 | 39.54659 | 2.73672 | 37 ft | 15 kts | 56° |
| 2026-05-05 23:06 | 39.54718 | 2.73799 | 36 ft | 17 kts | 59° |
| 2026-05-05 23:07 | 39.54785 | 2.73935 | 37 ft | 18 kts | 57° |
| 2026-05-05 23:07 | 39.54889 | 2.73968 | 36 ft | 18 kts | 329° |
| 2026-05-05 23:07 | 39.54997 | 2.73883 | 36 ft | 18 kts | 329° |
| 2026-05-05 23:07 | 39.55092 | 2.73807 | 37 ft | 16 kts | 329° |
| 2026-05-05 23:08 | 39.55178 | 2.73715 | 37 ft | 17 kts | 277° |
| 2026-05-05 23:08 | 39.55125 | 2.73578 | 37 ft | 18 kts | 239° |
| 2026-05-05 23:08 | 39.55068 | 2.73459 | 37 ft | 15 kts | 239° |
| 2026-05-05 23:08 | 39.55038 | 2.73391 | 37 ft | 2 kts | 232° |
| 2026-05-05 23:09 | 39.55010 | 2.73383 | 37 ft | 7 kts | 173° |
| 2026-05-05 23:09 | 39.54996 | 2.73388 | 37 ft | 3 kts | 166° |
| 2026-05-05 23:09 | 39.54983 | 2.73392 | 36 ft | 0 kts | 165° |